createdAt,value
2017-01-22T00:00:11.629Z,49.50
2017-01-22T00:01:11.699Z,49.20
2017-01-22T00:02:11.650Z,49.00
2017-01-22T00:03:12.988Z,49.00
2017-01-22T00:04:13.393Z,49.00
2017-01-22T00:05:12.886Z,48.70
2017-01-22T00:06:13.249Z,48.70
2017-01-22T00:07:09.467Z,is
2017-01-22T00:08:11.714Z,48.60
2017-01-22T00:09:12.514Z,48.80
2017-01-22T00:10:11.459Z,48.80
2017-01-22T00:11:11.955Z,48.90
2017-01-22T00:12:12.580Z,48.70
2017-01-22T00:13:11.690Z,48.60
2017-01-22T00:14:11.779Z,48.80
2017-01-22T00:15:11.709Z,48.70
2017-01-22T00:16:11.737Z,48.60
2017-01-22T00:17:12.594Z,48.60
2017-01-22T00:18:10.797Z,is
2017-01-22T00:19:13.163Z,48.70
2017-01-22T00:20:12.360Z,48.60
2017-01-22T00:21:11.679Z,48.70
2017-01-22T00:22:12.467Z,48.60
2017-01-22T00:23:11.518Z,48.60
2017-01-22T00:24:12.290Z,48.80
2017-01-22T00:25:13.614Z,48.60
2017-01-22T00:26:11.544Z,48.60
2017-01-22T00:27:12.235Z,48.60
2017-01-22T00:28:12.144Z,48.60
2017-01-22T00:29:13.160Z,48.70
2017-01-22T00:30:12.248Z,48.60
2017-01-22T00:31:12.314Z,48.70
2017-01-22T00:32:12.466Z,48.60
2017-01-22T00:33:13.075Z,48.60
2017-01-22T00:34:12.578Z,48.70
2017-01-22T00:35:12.277Z,48.70
2017-01-22T00:36:12.961Z,48.70
2017-01-22T00:37:13.761Z,49.00
2017-01-22T00:38:11.680Z,49.10
2017-01-22T00:39:11.665Z,49.20
2017-01-22T00:40:12.321Z,49.70
2017-01-22T00:41:11.520Z,49.60
2017-01-22T00:42:12.441Z,49.80
2017-01-22T00:43:11.448Z,49.80
2017-01-22T00:44:11.542Z,49.70
2017-01-22T00:45:14.085Z,49.80
2017-01-22T00:46:12.912Z,49.80
2017-01-22T00:47:12.763Z,49.80
2017-01-22T00:48:12.158Z,49.70
2017-01-22T00:49:13.790Z,49.80
2017-01-22T00:50:09.107Z,is
2017-01-22T00:51:13.191Z,49.70
2017-01-22T00:52:12.795Z,49.60
2017-01-22T00:53:13.560Z,49.70
2017-01-22T00:54:12.106Z,49.70
2017-01-22T00:55:13.500Z,49.70
2017-01-22T00:56:11.584Z,49.60
2017-01-22T00:57:13.171Z,49.60
2017-01-22T00:58:12.130Z,49.70
2017-01-22T00:59:12.844Z,49.60
2017-01-22T01:00:14.085Z,49.70
2017-01-22T01:01:13.706Z,49.60
2017-01-22T01:02:12.581Z,49.60
2017-01-22T01:03:10.344Z,is
2017-01-22T01:04:12.059Z,49.50
2017-01-22T01:05:13.574Z,49.60
2017-01-22T01:06:11.730Z,49.40
2017-01-22T01:07:12.364Z,49.40
2017-01-22T01:08:13.083Z,49.50
2017-01-22T01:09:12.738Z,49.80
2017-01-22T01:10:13.856Z,49.50
2017-01-22T01:11:12.811Z,49.40
2017-01-22T01:12:12.487Z,49.40
2017-01-22T01:13:11.780Z,49.30
2017-01-22T01:14:12.722Z,49.40
2017-01-22T01:15:14.307Z,49.60
2017-01-22T01:16:12.348Z,49.30
2017-01-22T01:17:12.571Z,49.40
2017-01-22T01:18:13.244Z,49.50
2017-01-22T01:19:14.876Z,49.50
2017-01-22T01:20:13.611Z,49.50
2017-01-22T01:21:12.973Z,49.20
2017-01-22T01:22:13.921Z,49.50
2017-01-22T01:23:15.463Z,49.40
2017-01-22T01:24:12.084Z,49.40
2017-01-22T01:25:13.310Z,49.50
2017-01-22T01:26:14.818Z,49.50
2017-01-22T01:27:12.007Z,49.40
2017-01-22T01:28:13.421Z,49.50
2017-01-22T01:29:12.660Z,49.30
2017-01-22T01:30:14.737Z,49.50
2017-01-22T01:31:12.090Z,49.50
2017-01-22T01:32:13.279Z,49.40
2017-01-22T01:33:12.597Z,49.40
2017-01-22T01:34:13.659Z,49.50
2017-01-22T01:35:13.040Z,49.50
2017-01-22T01:36:12.607Z,is
2017-01-22T01:37:14.834Z,49.50
2017-01-22T01:38:13.544Z,49.40
2017-01-22T01:39:14.407Z,49.40
2017-01-22T01:40:13.496Z,49.50
2017-01-22T01:41:13.477Z,49.40
2017-01-22T01:42:12.429Z,49.40
2017-01-22T01:43:12.962Z,49.40
2017-01-22T01:44:13.760Z,49.40
2017-01-22T01:45:11.790Z,49.30
2017-01-22T01:46:13.571Z,49.40
2017-01-22T01:47:13.131Z,49.40
2017-01-22T01:48:13.664Z,49.30
2017-01-22T01:49:12.675Z,49.30
2017-01-22T01:50:11.665Z,49.30
2017-01-22T01:51:12.296Z,49.50
2017-01-22T01:52:12.966Z,49.40
2017-01-22T01:53:13.330Z,49.30
2017-01-22T01:54:13.635Z,49.40
2017-01-22T01:55:12.999Z,49.30
2017-01-22T01:56:12.600Z,49.40
2017-01-22T01:57:12.938Z,49.40
2017-01-22T01:58:13.154Z,49.40
2017-01-22T01:59:14.758Z,49.40
2017-01-22T02:00:13.139Z,49.30
2017-01-22T02:01:13.769Z,49.40
2017-01-22T02:02:11.612Z,49.30
2017-01-22T02:03:12.217Z,49.40
2017-01-22T02:04:13.445Z,49.40
2017-01-22T02:05:11.533Z,49.30
2017-01-22T02:06:13.439Z,49.50
2017-01-22T02:07:12.414Z,49.50
2017-01-22T02:08:11.452Z,49.50
2017-01-22T02:09:11.530Z,49.50
2017-01-22T02:10:11.486Z,49.40
2017-01-22T02:11:13.328Z,49.50
2017-01-22T02:12:15.656Z,49.50
2017-01-22T02:13:11.770Z,49.50
2017-01-22T02:14:12.722Z,49.40
2017-01-22T02:15:12.970Z,49.30
2017-01-22T02:16:14.046Z,49.40
2017-01-22T02:17:12.312Z,49.30
2017-01-22T02:18:14.321Z,49.30
2017-01-22T02:19:13.934Z,49.30
2017-01-22T02:20:13.056Z,49.30
2017-01-22T02:21:13.829Z,49.40
2017-01-22T02:22:12.819Z,49.40
2017-01-22T02:23:15.151Z,49.30
2017-01-22T02:24:13.206Z,49.30
2017-01-22T02:25:12.533Z,49.30
2017-01-22T02:26:11.618Z,49.30
2017-01-22T02:27:12.733Z,49.30
2017-01-22T02:28:12.116Z,49.30
2017-01-22T02:29:13.519Z,49.40
2017-01-22T02:30:12.969Z,49.30
2017-01-22T02:31:13.736Z,49.30
2017-01-22T02:32:13.436Z,49.30
2017-01-22T02:33:11.971Z,49.30
2017-01-22T02:34:12.226Z,49.40
2017-01-22T02:35:13.066Z,49.30
2017-01-22T02:36:12.123Z,49.30
2017-01-22T02:37:12.169Z,49.20
2017-01-22T02:38:13.146Z,49.30
2017-01-22T02:39:13.567Z,49.30
2017-01-22T02:40:11.791Z,is
2017-01-22T02:41:12.803Z,49.30
2017-01-22T02:42:12.884Z,49.30
2017-01-22T02:43:09.792Z,is
2017-01-22T02:44:14.622Z,49.40
2017-01-22T02:45:12.927Z,49.40
2017-01-22T02:46:13.498Z,49.30
2017-01-22T02:47:11.571Z,49.30
2017-01-22T02:48:13.307Z,49.50
2017-01-22T02:49:14.007Z,49.30
2017-01-22T02:50:10.536Z,is
2017-01-22T02:51:14.692Z,49.40
2017-01-22T02:52:11.710Z,49.30
2017-01-22T02:53:12.136Z,49.20
2017-01-22T02:54:12.109Z,49.30
2017-01-22T02:55:13.865Z,49.30
2017-01-22T02:56:12.453Z,49.30
2017-01-22T02:57:11.397Z,49.20
2017-01-22T02:58:12.710Z,49.40
2017-01-22T02:59:13.150Z,49.40
2017-01-22T03:00:13.893Z,49.50
2017-01-22T03:01:12.588Z,49.40
2017-01-22T03:02:14.173Z,49.40
2017-01-22T03:03:13.689Z,49.50
2017-01-22T03:04:12.713Z,49.50
2017-01-22T03:05:12.375Z,49.50
2017-01-22T03:06:11.447Z,49.40
2017-01-22T03:07:11.943Z,49.70
2017-01-22T03:08:12.531Z,49.40
2017-01-22T03:09:12.173Z,49.40
2017-01-22T03:10:12.293Z,49.50
2017-01-22T03:11:14.297Z,49.50
2017-01-22T03:12:12.847Z,49.40
2017-01-22T03:13:13.745Z,49.30
2017-01-22T03:14:12.556Z,49.50
2017-01-22T03:15:11.440Z,49.50
2017-01-22T03:16:11.873Z,49.40
2017-01-22T03:17:12.389Z,49.40
2017-01-22T03:18:12.264Z,49.40
2017-01-22T03:19:13.188Z,49.50
2017-01-22T03:20:12.206Z,49.50
2017-01-22T03:21:12.850Z,49.50
2017-01-22T03:22:12.079Z,49.40
2017-01-22T03:23:13.581Z,49.50
2017-01-22T03:24:12.131Z,49.40
2017-01-22T03:25:13.886Z,49.50
2017-01-22T03:26:14.761Z,49.40
2017-01-22T03:27:12.270Z,49.40
2017-01-22T03:28:12.641Z,49.50
2017-01-22T03:29:11.639Z,49.40
2017-01-22T03:30:11.779Z,49.40
2017-01-22T03:31:11.923Z,49.50
2017-01-22T03:32:12.884Z,49.50
2017-01-22T03:33:12.530Z,49.50
2017-01-22T03:34:12.596Z,49.60
2017-01-22T03:35:12.561Z,49.50
2017-01-22T03:36:11.451Z,49.60
2017-01-22T03:37:10.221Z,is
2017-01-22T03:38:11.829Z,49.40
2017-01-22T03:39:12.939Z,49.50
2017-01-22T03:40:12.536Z,49.40
2017-01-22T03:41:11.617Z,49.50
2017-01-22T03:42:13.535Z,49.50
2017-01-22T03:43:13.659Z,49.60
2017-01-22T03:44:12.220Z,49.50
2017-01-22T03:45:12.179Z,49.40
2017-01-22T03:46:10.868Z,is
2017-01-22T03:47:13.481Z,49.60
2017-01-22T03:48:10.268Z,is
2017-01-22T03:49:10.870Z,is
2017-01-22T03:50:13.510Z,49.50
2017-01-22T03:51:12.635Z,49.40
2017-01-22T03:52:10.329Z,is
2017-01-22T03:53:12.259Z,49.40
2017-01-22T03:54:13.889Z,49.40
2017-01-22T03:55:11.914Z,49.50
2017-01-22T03:56:14.711Z,49.50
2017-01-22T03:57:12.424Z,49.60
2017-01-22T03:58:12.996Z,49.50
2017-01-22T03:59:14.470Z,49.50
2017-01-22T04:00:11.456Z,49.50
2017-01-22T04:01:12.585Z,49.50
2017-01-22T04:02:12.655Z,49.50
2017-01-22T04:03:12.895Z,49.60
2017-01-22T04:04:11.769Z,49.50
2017-01-22T04:05:12.866Z,49.50
2017-01-22T04:06:12.783Z,49.60
2017-01-22T04:07:13.362Z,49.60
2017-01-22T04:08:12.850Z,49.50
2017-01-22T04:09:11.790Z,49.50
2017-01-22T04:10:13.443Z,49.50
2017-01-22T04:11:11.658Z,49.50
2017-01-22T04:12:13.360Z,49.60
2017-01-22T04:13:13.058Z,49.50
2017-01-22T04:14:11.986Z,49.60
2017-01-22T04:15:13.605Z,49.70
2017-01-22T04:16:12.777Z,49.70
2017-01-22T04:17:10.757Z,is
2017-01-22T04:18:13.233Z,49.60
2017-01-22T04:19:12.181Z,49.50
2017-01-22T04:20:12.952Z,49.50
2017-01-22T04:21:13.055Z,49.50
2017-01-22T04:22:12.049Z,49.60
2017-01-22T04:23:13.789Z,49.60
2017-01-22T04:24:12.391Z,49.60
2017-01-22T04:25:12.729Z,49.70
2017-01-22T04:26:12.779Z,49.70
2017-01-22T04:27:12.405Z,49.60
2017-01-22T04:28:14.191Z,49.60
2017-01-22T04:29:12.646Z,49.50
2017-01-22T04:30:11.605Z,49.40
2017-01-22T04:31:12.284Z,49.60
2017-01-22T04:32:12.614Z,49.50
2017-01-22T04:33:12.170Z,49.60
2017-01-22T04:34:13.929Z,49.50
2017-01-22T04:35:15.242Z,49.70
2017-01-22T04:36:13.075Z,49.50
2017-01-22T04:37:12.759Z,49.60
2017-01-22T04:38:12.868Z,49.60
2017-01-22T04:39:13.706Z,49.60
2017-01-22T04:40:11.483Z,49.50
2017-01-22T04:41:11.549Z,49.50
2017-01-22T04:42:12.642Z,49.50
2017-01-22T04:43:13.304Z,49.50
2017-01-22T04:44:12.233Z,49.40
2017-01-22T04:45:12.303Z,49.50
2017-01-22T04:46:11.152Z,is
2017-01-22T04:47:12.789Z,49.50
2017-01-22T04:48:13.092Z,49.60
2017-01-22T04:49:12.653Z,49.50
2017-01-22T04:50:12.215Z,49.50
2017-01-22T04:51:14.628Z,49.50
2017-01-22T04:52:12.108Z,49.50
2017-01-22T04:53:12.868Z,49.50
2017-01-22T04:54:12.449Z,49.60
2017-01-22T04:55:11.883Z,49.60
2017-01-22T04:56:11.951Z,49.50
2017-01-22T04:57:12.031Z,49.60
2017-01-22T04:58:13.649Z,49.60
2017-01-22T04:59:11.669Z,49.60
2017-01-22T05:00:11.577Z,49.50
2017-01-22T05:01:12.250Z,49.70
2017-01-22T05:02:12.439Z,49.60
2017-01-22T05:03:11.775Z,49.60
2017-01-22T05:04:12.240Z,49.60
2017-01-22T05:05:12.155Z,49.60
2017-01-22T05:06:12.739Z,49.60
2017-01-22T05:07:12.367Z,49.60
2017-01-22T05:08:10.860Z,is
2017-01-22T05:09:12.882Z,49.50
2017-01-22T05:10:11.047Z,is
2017-01-22T05:11:13.338Z,50.00
2017-01-22T05:12:12.990Z,50.10
2017-01-22T05:13:13.733Z,49.90
2017-01-22T05:14:11.720Z,49.70
2017-01-22T05:15:11.782Z,49.80
2017-01-22T05:16:11.759Z,49.70
2017-01-22T05:17:13.788Z,49.80
2017-01-22T05:18:11.917Z,49.70
2017-01-22T05:19:09.259Z,is
2017-01-22T05:20:12.057Z,49.80
2017-01-22T05:21:13.886Z,49.70
2017-01-22T05:22:12.562Z,49.70
2017-01-22T05:23:12.712Z,49.70
2017-01-22T05:24:11.645Z,49.70
2017-01-22T05:25:16.385Z,49.90
2017-01-22T05:26:13.326Z,49.70
2017-01-22T05:27:12.410Z,49.70
2017-01-22T05:28:13.465Z,49.80
2017-01-22T05:29:11.977Z,49.80
2017-01-22T05:30:11.862Z,49.80
2017-01-22T05:31:11.888Z,49.70
2017-01-22T05:32:13.303Z,49.70
2017-01-22T05:33:13.047Z,49.70
2017-01-22T05:34:11.993Z,49.70
2017-01-22T05:35:11.995Z,49.70
2017-01-22T05:36:11.958Z,49.70
2017-01-22T05:37:11.883Z,49.70
2017-01-22T05:38:12.466Z,49.60
2017-01-22T05:39:12.192Z,49.80
2017-01-22T05:40:12.754Z,49.70
2017-01-22T05:41:14.407Z,49.70
2017-01-22T05:42:11.437Z,49.70
2017-01-22T05:43:12.415Z,49.60
2017-01-22T05:44:11.388Z,49.50
2017-01-22T05:45:12.061Z,49.80
2017-01-22T05:46:10.780Z,is
2017-01-22T05:47:10.634Z,is
2017-01-22T05:48:12.787Z,49.60
2017-01-22T05:49:12.303Z,49.60
2017-01-22T05:50:13.074Z,49.70
2017-01-22T05:51:12.926Z,49.70
2017-01-22T05:52:12.394Z,49.70
2017-01-22T05:53:12.165Z,49.70
2017-01-22T05:54:13.354Z,49.60
2017-01-22T05:55:13.023Z,49.60
2017-01-22T05:56:11.964Z,49.70
2017-01-22T05:57:12.699Z,49.70
2017-01-22T05:58:13.371Z,49.60
2017-01-22T05:59:13.011Z,49.60
2017-01-22T06:00:12.048Z,49.60
2017-01-22T06:01:17.348Z,49.50
2017-01-22T06:02:11.881Z,49.70
2017-01-22T06:03:13.096Z,49.60
2017-01-22T06:04:13.339Z,49.60
2017-01-22T06:05:13.233Z,49.50
2017-01-22T06:06:12.207Z,49.60
2017-01-22T06:07:12.892Z,49.50
2017-01-22T06:08:10.293Z,is
2017-01-22T06:09:12.216Z,49.50
2017-01-22T06:10:12.140Z,49.50
2017-01-22T06:11:13.921Z,49.50
2017-01-22T06:12:12.621Z,49.60
2017-01-22T06:13:13.091Z,49.60
2017-01-22T06:14:13.124Z,49.60
2017-01-22T06:15:12.363Z,49.60
2017-01-22T06:16:12.303Z,49.70
2017-01-22T06:17:12.576Z,49.60
2017-01-22T06:18:11.575Z,49.50
2017-01-22T06:19:12.866Z,49.50
2017-01-22T06:20:11.866Z,49.60
2017-01-22T06:21:12.289Z,49.40
2017-01-22T06:22:12.361Z,49.40
2017-01-22T06:23:12.416Z,49.50
2017-01-22T06:24:12.289Z,49.60
2017-01-22T06:25:15.902Z,49.50
2017-01-22T06:26:12.595Z,49.60
2017-01-22T06:27:11.606Z,49.60
2017-01-22T06:28:13.491Z,49.50
2017-01-22T06:29:12.373Z,50.10
2017-01-22T06:30:12.300Z,49.50
2017-01-22T06:31:15.119Z,49.60
2017-01-22T06:32:12.567Z,49.60
2017-01-22T06:33:12.439Z,49.60
2017-01-22T06:34:11.990Z,49.60
2017-01-22T06:35:12.471Z,49.50
2017-01-22T06:36:12.547Z,49.60
2017-01-22T06:37:13.074Z,49.50
2017-01-22T06:38:15.163Z,49.60
2017-01-22T06:39:12.806Z,49.60
2017-01-22T06:40:11.763Z,49.60
2017-01-22T06:41:12.406Z,49.60
2017-01-22T06:42:11.478Z,49.50
2017-01-22T06:43:13.635Z,49.60
2017-01-22T06:44:12.648Z,49.70
2017-01-22T06:45:12.542Z,49.60
2017-01-22T06:46:12.281Z,49.50
2017-01-22T06:47:13.065Z,49.50
2017-01-22T06:48:13.095Z,49.70
2017-01-22T06:49:13.208Z,49.70
2017-01-22T06:50:12.111Z,49.50
2017-01-22T06:51:12.526Z,49.80
2017-01-22T06:52:13.259Z,49.70
2017-01-22T06:53:12.890Z,49.60
2017-01-22T06:54:12.647Z,49.50
2017-01-22T06:55:13.117Z,49.60
2017-01-22T06:56:12.140Z,49.90
2017-01-22T06:57:13.683Z,50.00
2017-01-22T06:58:13.597Z,50.00
2017-01-22T06:59:11.681Z,49.90
2017-01-22T07:00:11.579Z,49.90
2017-01-22T07:01:11.550Z,49.80
2017-01-22T07:02:10.233Z,is
2017-01-22T07:03:11.375Z,49.70
2017-01-22T07:04:12.913Z,49.70
2017-01-22T07:05:12.478Z,49.70
2017-01-22T07:06:12.644Z,49.70
2017-01-22T07:07:12.653Z,49.70
2017-01-22T07:08:13.343Z,49.70
2017-01-22T07:09:12.393Z,49.60
2017-01-22T07:10:11.239Z,49.60
2017-01-22T07:11:14.282Z,49.60
2017-01-22T07:12:12.801Z,49.60
2017-01-22T07:13:12.665Z,49.60
2017-01-22T07:14:12.335Z,49.70
2017-01-22T07:15:12.234Z,49.70
2017-01-22T07:16:12.146Z,49.70
2017-01-22T07:17:12.389Z,49.70
2017-01-22T07:18:13.109Z,49.70
2017-01-22T07:19:12.656Z,49.60
2017-01-22T07:20:11.707Z,49.70
2017-01-22T07:21:12.844Z,49.80
2017-01-22T07:22:11.898Z,49.70
2017-01-22T07:23:13.524Z,49.80
2017-01-22T07:24:13.956Z,49.80
2017-01-22T07:25:13.386Z,49.70
2017-01-22T07:26:11.464Z,49.80
2017-01-22T07:27:12.136Z,49.80
2017-01-22T07:28:15.786Z,49.80
2017-01-22T07:29:11.685Z,50.00
2017-01-22T07:30:11.686Z,49.80
2017-01-22T07:31:12.204Z,49.80
2017-01-22T07:32:12.254Z,49.70
2017-01-22T07:33:12.243Z,49.80
2017-01-22T07:34:12.031Z,is
2017-01-22T07:35:11.923Z,49.80
2017-01-22T07:36:12.249Z,50.20
2017-01-22T07:37:13.807Z,49.90
2017-01-22T07:38:11.894Z,49.70
2017-01-22T07:39:12.405Z,49.90
2017-01-22T07:40:11.315Z,49.80
2017-01-22T07:41:12.253Z,49.80
2017-01-22T07:42:13.147Z,49.70
2017-01-22T07:43:13.804Z,49.70
2017-01-22T07:44:11.770Z,49.70
2017-01-22T07:45:11.719Z,49.70
2017-01-22T07:46:11.690Z,49.60
2017-01-22T07:47:12.266Z,49.70
2017-01-22T07:48:12.845Z,49.90
2017-01-22T07:49:12.255Z,49.80
2017-01-22T07:50:12.362Z,49.80
2017-01-22T07:51:12.900Z,49.70
2017-01-22T07:52:12.766Z,49.80
2017-01-22T07:53:10.472Z,is
2017-01-22T07:54:12.735Z,49.70
2017-01-22T07:55:12.096Z,49.70
2017-01-22T07:56:10.859Z,is
2017-01-22T07:57:11.983Z,49.80
2017-01-22T07:58:13.844Z,49.70
2017-01-22T07:59:13.689Z,49.70
2017-01-22T08:00:11.708Z,49.70
2017-01-22T08:01:12.171Z,49.80
2017-01-22T08:02:13.426Z,49.70
2017-01-22T08:03:12.137Z,50.10
2017-01-22T08:04:12.003Z,49.90
2017-01-22T08:05:12.019Z,49.80
2017-01-22T08:06:12.811Z,49.90
2017-01-22T08:07:12.312Z,49.80
2017-01-22T08:08:12.844Z,50.00
2017-01-22T08:09:11.750Z,49.90
2017-01-22T08:10:11.831Z,49.80
2017-01-22T08:11:12.673Z,49.80
2017-01-22T08:12:12.416Z,49.90
2017-01-22T08:13:13.361Z,49.90
2017-01-22T08:14:12.897Z,50.00
2017-01-22T08:15:13.032Z,49.90
2017-01-22T08:16:11.889Z,49.90
2017-01-22T08:17:13.127Z,50.00
2017-01-22T08:18:12.109Z,49.90
2017-01-22T08:19:12.061Z,50.20
2017-01-22T08:20:12.599Z,50.00
2017-01-22T08:21:11.740Z,50.20
2017-01-22T08:22:11.786Z,50.10
2017-01-22T08:23:10.895Z,is
2017-01-22T08:24:11.975Z,49.90
2017-01-22T08:25:12.126Z,49.80
2017-01-22T08:26:12.544Z,49.80
2017-01-22T08:27:11.524Z,49.80
2017-01-22T08:28:12.979Z,49.70
2017-01-22T08:29:12.452Z,49.70
2017-01-22T08:30:11.481Z,49.80
2017-01-22T08:31:12.640Z,49.80
2017-01-22T08:32:13.377Z,49.70
2017-01-22T08:33:13.444Z,49.70
2017-01-22T08:34:12.628Z,49.80
2017-01-22T08:35:12.069Z,49.70
2017-01-22T08:36:13.010Z,49.80
2017-01-22T08:37:12.607Z,49.70
2017-01-22T08:38:12.210Z,49.60
2017-01-22T08:39:12.187Z,49.60
2017-01-22T08:40:12.741Z,49.80
2017-01-22T08:41:12.528Z,49.70
2017-01-22T08:42:11.676Z,49.60
2017-01-22T08:43:13.527Z,49.60
2017-01-22T08:44:11.504Z,49.50
2017-01-22T08:45:10.596Z,is
2017-01-22T08:46:12.504Z,50.10
2017-01-22T08:47:12.011Z,50.00
2017-01-22T08:48:12.068Z,49.90
2017-01-22T08:49:12.886Z,49.80
2017-01-22T08:50:12.385Z,50.30
2017-01-22T08:51:12.055Z,50.20
2017-01-22T08:52:12.151Z,49.90
2017-01-22T08:53:10.991Z,is
2017-01-22T08:54:12.801Z,49.60
2017-01-22T08:55:12.375Z,49.70
2017-01-22T08:56:11.929Z,49.70
2017-01-22T08:57:12.418Z,49.80
2017-01-22T08:58:14.055Z,49.70
2017-01-22T08:59:12.618Z,50.00
2017-01-22T09:00:15.520Z,49.90
2017-01-22T09:01:11.949Z,50.20
2017-01-22T09:02:12.539Z,50.20
2017-01-22T09:03:12.216Z,50.20
2017-01-22T09:04:12.328Z,50.50
2017-01-22T09:05:12.697Z,50.20
2017-01-22T09:06:11.615Z,50.90
2017-01-22T09:07:11.061Z,is
2017-01-22T09:08:13.071Z,50.20
2017-01-22T09:09:12.952Z,50.10
2017-01-22T09:10:12.039Z,50.30
2017-01-22T09:11:12.672Z,50.10
2017-01-22T09:12:13.241Z,49.80
2017-01-22T09:13:13.196Z,49.90
2017-01-22T09:14:11.499Z,49.50
2017-01-22T09:15:11.548Z,49.90
2017-01-22T09:16:12.351Z,49.80
2017-01-22T09:17:13.076Z,49.80
2017-01-22T09:18:13.823Z,49.50
2017-01-22T09:19:12.340Z,49.50
2017-01-22T09:20:13.949Z,49.70
2017-01-22T09:21:09.650Z,is
2017-01-22T09:22:12.836Z,50.00
2017-01-22T09:23:12.167Z,50.10
2017-01-22T09:24:12.158Z,49.70
2017-01-22T09:25:12.061Z,49.80
2017-01-22T09:26:14.601Z,49.00
2017-01-22T09:27:12.139Z,49.00
2017-01-22T09:28:13.428Z,49.20
2017-01-22T09:29:14.071Z,49.30
2017-01-22T09:30:13.342Z,49.40
2017-01-22T09:31:11.408Z,48.90
2017-01-22T09:32:11.994Z,48.40
2017-01-22T09:33:12.383Z,48.40
2017-01-22T09:34:11.379Z,48.70
2017-01-22T09:35:12.823Z,48.00
2017-01-22T09:36:11.788Z,48.00
2017-01-22T09:37:13.530Z,48.00
2017-01-22T09:38:12.224Z,48.00
2017-01-22T09:39:12.240Z,47.90
2017-01-22T09:40:12.242Z,47.80
2017-01-22T09:41:12.734Z,47.70
2017-01-22T09:42:12.291Z,48.00
2017-01-22T09:43:13.841Z,47.90
2017-01-22T09:44:12.323Z,47.60
2017-01-22T09:45:11.993Z,47.50
2017-01-22T09:46:12.519Z,47.20
2017-01-22T09:47:09.290Z,is
2017-01-22T09:48:11.826Z,47.30
2017-01-22T09:49:12.590Z,47.10
2017-01-22T09:50:12.599Z,47.10
2017-01-22T09:51:14.992Z,47.00
2017-01-22T09:52:12.499Z,46.90
2017-01-22T09:53:12.546Z,47.00
2017-01-22T09:54:12.195Z,43.50
2017-01-22T09:55:14.313Z,43.10
2017-01-22T09:56:13.046Z,42.80
2017-01-22T09:57:14.901Z,44.50
2017-01-22T09:58:12.759Z,45.20
2017-01-22T09:59:12.301Z,45.50
2017-01-22T10:00:12.378Z,45.70
2017-01-22T10:01:12.903Z,46.10
2017-01-22T10:02:12.931Z,46.20
2017-01-22T10:03:10.751Z,is
2017-01-22T10:04:12.454Z,46.40
2017-01-22T10:05:11.985Z,46.50
2017-01-22T10:06:12.877Z,46.80
2017-01-22T10:07:12.733Z,46.90
2017-01-22T10:08:12.316Z,47.00
2017-01-22T10:09:12.394Z,47.00
2017-01-22T10:10:11.946Z,47.20
2017-01-22T10:11:13.141Z,47.40
2017-01-22T10:12:12.107Z,47.30
2017-01-22T10:13:13.789Z,47.40
2017-01-22T10:14:12.422Z,47.40
2017-01-22T10:15:12.215Z,47.50
2017-01-22T10:16:12.916Z,47.60
2017-01-22T10:17:12.391Z,47.50
2017-01-22T10:18:11.425Z,47.60
2017-01-22T10:19:12.096Z,47.60
2017-01-22T10:20:12.211Z,47.60
2017-01-22T10:21:12.335Z,47.60
2017-01-22T10:22:10.930Z,is
2017-01-22T10:23:13.812Z,47.80
2017-01-22T10:24:11.784Z,47.70
2017-01-22T10:25:11.934Z,47.70
2017-01-22T10:26:12.994Z,47.80
2017-01-22T10:27:12.429Z,47.70
2017-01-22T10:28:13.000Z,47.80
2017-01-22T10:29:12.526Z,47.90
2017-01-22T10:30:11.672Z,47.90
2017-01-22T10:31:11.774Z,47.90
2017-01-22T10:32:11.827Z,47.90
2017-01-22T10:33:12.579Z,48.00
2017-01-22T10:34:13.024Z,48.00
2017-01-22T10:35:12.001Z,48.00
2017-01-22T10:36:12.142Z,48.00
2017-01-22T10:37:12.180Z,48.00
2017-01-22T10:38:12.026Z,48.10
2017-01-22T10:39:12.468Z,48.00
2017-01-22T10:40:11.453Z,48.00
2017-01-22T10:41:12.236Z,48.10
2017-01-22T10:42:12.964Z,48.10
2017-01-22T10:43:13.726Z,48.10
2017-01-22T10:44:13.324Z,48.30
2017-01-22T10:45:12.440Z,48.10
2017-01-22T10:46:11.488Z,48.30
2017-01-22T10:47:12.102Z,48.40
2017-01-22T10:48:13.907Z,48.40
2017-01-22T10:49:12.736Z,48.30
2017-01-22T10:50:12.174Z,48.30
2017-01-22T10:51:12.229Z,48.10
2017-01-22T10:52:18.126Z,48.30
2017-01-22T10:53:12.810Z,48.30
2017-01-22T10:54:13.415Z,48.20
2017-01-22T10:55:13.144Z,48.10
2017-01-22T10:56:12.167Z,48.20
2017-01-22T10:57:10.823Z,is
2017-01-22T10:58:13.159Z,48.20
2017-01-22T10:59:12.074Z,48.20
2017-01-22T11:00:12.007Z,48.30
2017-01-22T11:01:13.553Z,48.30
2017-01-22T11:02:12.045Z,48.30
2017-01-22T11:03:12.163Z,48.30
2017-01-22T11:04:12.954Z,48.30
2017-01-22T11:05:11.924Z,48.20
2017-01-22T11:06:13.371Z,48.40
2017-01-22T11:07:12.253Z,48.40
2017-01-22T11:08:13.377Z,48.30
2017-01-22T11:09:12.481Z,48.50
2017-01-22T11:10:12.231Z,49.10
2017-01-22T11:11:12.517Z,48.90
2017-01-22T11:12:12.085Z,49.00
2017-01-22T11:13:13.588Z,48.90
2017-01-22T11:14:12.601Z,48.70
2017-01-22T11:15:10.571Z,is
2017-01-22T11:16:12.253Z,48.60
2017-01-22T11:17:10.972Z,is
2017-01-22T11:18:12.792Z,48.50
2017-01-22T11:19:12.687Z,49.00
2017-01-22T11:20:11.681Z,48.90
2017-01-22T11:21:08.970Z,is
2017-01-22T11:22:12.771Z,48.90
2017-01-22T11:23:11.732Z,48.90
2017-01-22T11:24:11.895Z,48.90
2017-01-22T11:25:12.587Z,48.90
2017-01-22T11:26:12.180Z,49.00
2017-01-22T11:27:12.907Z,49.00
2017-01-22T11:28:13.561Z,48.90
2017-01-22T11:29:11.596Z,48.90
2017-01-22T11:30:11.545Z,48.90
2017-01-22T11:31:11.492Z,48.90
2017-01-22T11:32:13.063Z,48.90
2017-01-22T11:33:12.073Z,48.90
2017-01-22T11:34:13.849Z,48.90
2017-01-22T11:35:12.631Z,48.90
2017-01-22T11:36:11.786Z,48.90
2017-01-22T11:37:10.587Z,is
2017-01-22T11:38:12.484Z,48.90
2017-01-22T11:39:12.080Z,49.00
2017-01-22T11:40:11.199Z,is
2017-01-22T11:41:12.620Z,48.90
2017-01-22T11:42:13.329Z,49.00
2017-01-22T11:43:13.157Z,48.90
2017-01-22T11:44:12.224Z,48.90
2017-01-22T11:45:12.207Z,48.80
2017-01-22T11:46:13.030Z,49.10
2017-01-22T11:47:11.983Z,49.00
2017-01-22T11:48:12.808Z,49.00
2017-01-22T11:49:12.371Z,49.00
2017-01-22T11:50:12.330Z,is
2017-01-22T11:51:11.985Z,49.30
2017-01-22T11:52:12.566Z,49.10
2017-01-22T11:53:11.576Z,49.00
2017-01-22T11:54:12.277Z,49.00
2017-01-22T11:55:12.178Z,48.90
2017-01-22T11:56:13.139Z,48.90
2017-01-22T11:57:12.652Z,48.60
2017-01-22T11:58:11.536Z,is
2017-01-22T11:59:12.460Z,48.80
2017-01-22T12:00:12.272Z,48.80
2017-01-22T12:01:12.360Z,48.70
2017-01-22T12:02:13.039Z,48.70
2017-01-22T12:03:11.901Z,48.60
2017-01-22T12:04:12.532Z,48.60
2017-01-22T12:05:12.066Z,48.60
2017-01-22T12:06:11.976Z,48.50
2017-01-22T12:07:13.784Z,48.50
2017-01-22T12:08:10.777Z,is
2017-01-22T12:09:12.412Z,48.40
2017-01-22T12:10:11.424Z,48.20
2017-01-22T12:11:11.402Z,48.30
2017-01-22T12:12:13.254Z,48.40
2017-01-22T12:13:13.045Z,48.30
2017-01-22T12:14:13.628Z,48.30
2017-01-22T12:15:11.980Z,48.20
2017-01-22T12:16:12.244Z,48.30
2017-01-22T12:17:12.350Z,48.20
2017-01-22T12:18:12.993Z,48.20
2017-01-22T12:19:10.854Z,is
2017-01-22T12:20:13.447Z,48.20
2017-01-22T12:21:11.439Z,48.10
2017-01-22T12:22:13.094Z,48.20
2017-01-22T12:23:11.927Z,48.20
2017-01-22T12:24:12.567Z,48.40
2017-01-22T12:25:11.543Z,48.30
2017-01-22T12:26:12.038Z,48.30
2017-01-22T12:27:10.643Z,is
2017-01-22T12:28:13.003Z,48.40
2017-01-22T12:29:12.738Z,48.50
2017-01-22T12:30:12.374Z,48.50
2017-01-22T12:31:11.380Z,48.50
2017-01-22T12:32:13.925Z,48.50
2017-01-22T12:33:13.677Z,48.40
2017-01-22T12:34:12.660Z,48.50
2017-01-22T12:35:12.158Z,48.50
2017-01-22T12:36:12.083Z,48.50
2017-01-22T12:37:13.025Z,48.50
2017-01-22T12:38:12.120Z,48.50
2017-01-22T12:39:13.579Z,48.50
2017-01-22T12:40:11.700Z,48.50
2017-01-22T12:41:12.898Z,48.50
2017-01-22T12:42:13.226Z,48.70
2017-01-22T12:43:14.089Z,48.60
2017-01-22T12:44:10.828Z,is
2017-01-22T12:45:12.291Z,48.60
2017-01-22T12:46:12.991Z,48.80
2017-01-22T12:47:11.948Z,48.50
2017-01-22T12:48:10.374Z,is
2017-01-22T12:49:11.628Z,48.50
2017-01-22T12:50:10.546Z,is
2017-01-22T12:51:11.703Z,48.60
2017-01-22T12:52:11.716Z,48.60
2017-01-22T12:53:11.841Z,48.50
2017-01-22T12:54:11.881Z,48.50
2017-01-22T12:55:12.605Z,48.60
2017-01-22T12:56:12.270Z,48.60
2017-01-22T12:57:12.242Z,48.50